Skravig — FAD5199 — position and weather

sailwx.info

Track history (hours):
 
Tides and Currents Weather Stations Pressure Air Temp Water Temp Dewpoint Dewpoint Depression Visibility Wind Speed Wind Dir Waves Ship Positions

Skravig

Last reported at 2018-Feb-23 09:23 UTC. Time now 2018-Feb-24 04:33 UTC.
Position N 48°23' W 004°30'.

Length 13 m.

Type: Dredging. MMSI: 227401470.

Date/timePositionNaut miles runAvg speedWind from/ knotsBaromVisibWave heightAir tempDewpointWater temp
2018-Feb-23 09:23N 48°23' W 004°30'1 2.5
2018-Feb-23 08:58N 48°22' W 004°31'0 0.0
2018-Feb-23 08:25N 48°22' W 004°31'0 0.1
2018-Feb-23 08:00N 48°22' W 004°31'1 1.9
2018-Feb-23 07:28N 48°23' W 004°30'0 0.0
2018-Feb-22 13:48N 48°23' W 004°30'0 0.0
2018-Feb-22 13:30N 48°23' W 004°30'2 5.0
2018-Feb-22 13:00N 48°20' W 004°29'2 3.3
2018-Feb-22 12:27N 48°19' W 004°30'0 0.0
2018-Feb-22 11:57N 48°19' W 004°30'0 0.0
2018-Feb-22 11:30N 48°19' W 004°30'0 0.0
2018-Feb-22 10:54N 48°19' W 004°30'0 0.0
2018-Feb-22 10:24N 48°19' W 004°30'0 0.0
2018-Feb-22 10:00N 48°19' W 004°30'0 0.0
2018-Feb-22 09:30N 48°19' W 004°30'0 0.0
2018-Feb-22 09:00N 48°19' W 004°30'0 0.0
2018-Feb-22 08:30N 48°19' W 004°30'0 0.3
2018-Feb-22 08:00N 48°18' W 004°30'0 0.3
2018-Feb-22 07:30N 48°18' W 004°30'4 9.0
2018-Feb-22 07:00N 48°23' W 004°30'0 0.0
2018-Feb-21 13:13N 48°23' W 004°30'0 2.1
2018-Feb-21 13:00N 48°22' W 004°30'4 8.0
2018-Feb-21 12:30N 48°18' W 004°30'0 0.2
2018-Feb-21 11:58N 48°19' W 004°30'0 0.1
2018-Feb-21 11:30N 48°19' W 004°30'0 0.0
2018-Feb-21 11:00N 48°19' W 004°30'0 0.0
2018-Feb-21 10:30N 48°19' W 004°30'0 0.0
2018-Feb-21 09:58N 48°19' W 004°30'0 0.0
2018-Feb-21 09:28N 48°19' W 004°30'0 0.0
2018-Feb-21 08:58N 48°19' W 004°30'0 0.4
2018-Feb-21 08:30N 48°18' W 004°30'0 0.5
2018-Feb-21 08:00N 48°19' W 004°30'4 7.9
2018-Feb-21 07:29N 48°23' W 004°30'0 0.0
2018-Feb-21 07:00N 48°23' W 004°30'0 0.0
2018-Feb-20 13:20N 48°23' W 004°30'0 0.0
2018-Feb-20 12:59N 48°23' W 004°30'0 0.0
2018-Feb-20 12:29N 48°23' W 004°30'0 0.0
2018-Feb-20 11:59N 48°23' W 004°30'0 0.0
2018-Feb-20 11:29N 48°23' W 004°30'1 1.9
2018-Feb-20 11:00N 48°22' W 004°29'1 1.3
2018-Feb-20 10:28N 48°23' W 004°29'0 0.0
2018-Feb-20 09:58N 48°23' W 004°29'1 3.1
2018-Feb-20 09:30N 48°22' W 004°31'1 2.6
2018-Feb-20 09:00N 48°23' W 004°30'0 0.0
2018-Feb-20 08:30N 48°23' W 004°30'0 0.0
2018-Feb-20 08:00N 48°23' W 004°30'0 0.0
2018-Feb-19 13:45N 48°23' W 004°30'0 0.0
2018-Feb-19 13:30N 48°23' W 004°30'1 1.8
2018-Feb-19 13:00N 48°22' W 004°31'0 0.3
2018-Feb-19 12:29N 48°22' W 004°31'0 0.0
2018-Feb-19 11:59N 48°22' W 004°31'0 0.0
2018-Feb-19 11:29N 48°22' W 004°31'0 0.0
2018-Feb-19 10:59N 48°22' W 004°31'0 0.0
2018-Feb-19 10:29N 48°22' W 004°31'0 0.0
2018-Feb-19 09:59N 48°22' W 004°31'0 0.0
2018-Feb-19 09:29N 48°22' W 004°31'0 0.0
2018-Feb-19 08:59N 48°22' W 004°31'0 0.0
2018-Feb-19 08:30N 48°22' W 004°31'1 1.8
2018-Feb-19 08:00N 48°23' W 004°30'0 0.0
2018-Feb-19 07:30N 48°23' W 004°30'0 0.0
2018-Feb-19 06:59N 48°23' W 004°30'  
2018-Feb-15 12:08N 48°23' W 004°30'0 0.0
2018-Feb-15 11:59N 48°23' W 004°30'0 0.0
2018-Feb-15 11:28N 48°23' W 004°30'0 0.0
2018-Feb-15 10:58N 48°23' W 004°30'0 0.0
2018-Feb-15 10:28N 48°23' W 004°30'0 0.0
2018-Feb-15 09:58N 48°23' W 004°30'0 0.0
2018-Feb-15 09:28N 48°23' W 004°30'0 0.0
2018-Feb-15 08:58N 48°23' W 004°30'0 0.0
2018-Feb-15 08:28N 48°23' W 004°30'0 0.0
2018-Feb-15 08:00N 48°23' W 004°30'0 0.0
2018-Feb-15 07:28N 48°23' W 004°30'0 0.0
2018-Feb-14 13:37N 48°23' W 004°30'0 0.2
2018-Feb-14 13:30N 48°23' W 004°30'1 1.9
2018-Feb-14 13:00N 48°22' W 004°31'0 0.0
2018-Feb-14 12:30N 48°22' W 004°31'0 0.0
2018-Feb-14 12:00N 48°22' W 004°31'0 0.0
2018-Feb-14 11:30N 48°22' W 004°31'0 0.0
2018-Feb-14 11:00N 48°22' W 004°31'0 0.0
2018-Feb-14 10:27N 48°22' W 004°31'0 0.0
2018-Feb-14 10:00N 48°22' W 004°31'0 0.0
2018-Feb-14 09:31N 48°22' W 004°31'0 0.0
2018-Feb-14 08:59N 48°22' W 004°31'0 0.0
2018-Feb-14 08:29N 48°22' W 004°31'0 0.0
2018-Feb-14 07:59N 48°22' W 004°31'0 0.0
2018-Feb-14 07:29N 48°22' W 004°31'1 0.0
2018-Feb-13 13:02N 48°23' W 004°30'0 0.0
2018-Feb-13 12:59N 48°23' W 004°30'0 0.0
2018-Feb-13 12:29N 48°23' W 004°30'0 0.0
2018-Feb-13 11:59N 48°23' W 004°30'2 5.0
2018-Feb-13 11:30N 48°21' W 004°29'2 3.6
2018-Feb-13 10:55N 48°18' W 004°30'0 0.2
2018-Feb-13 10:29N 48°18' W 004°30'0 0.0
2018-Feb-13 09:59N 48°18' W 004°30'0 0.0
2018-Feb-13 09:29N 48°18' W 004°30'  
Track history (hours):
 
Tides and Currents Weather Stations Pressure Air Temp Water Temp Dewpoint Dewpoint Depression Visibility Wind Speed Wind Dir Waves Ship Positions

Skravig

Last reported at 2018-Feb-23 09:23 UTC. Time now 2018-Feb-24 04:33 UTC.
Position N 48°23' W 004°30'.

Length 13 m.

Type: Dredging. MMSI: 227401470.

Date/timePositionNaut miles runAvg speedWind from/ knotsBaromVisibWave heightAir tempDewpointWater temp
2018-Feb-23 09:23N 48°23' W 004°30'1 2.5
2018-Feb-23 08:58N 48°22' W 004°31'0 0.0
2018-Feb-23 08:25N 48°22' W 004°31'0 0.1
2018-Feb-23 08:00N 48°22' W 004°31'1 1.9
2018-Feb-23 07:28N 48°23' W 004°30'0 0.0
2018-Feb-22 13:48N 48°23' W 004°30'0 0.0
2018-Feb-22 13:30N 48°23' W 004°30'2 5.0
2018-Feb-22 13:00N 48°20' W 004°29'2 3.3
2018-Feb-22 12:27N 48°19' W 004°30'0 0.0
2018-Feb-22 11:57N 48°19' W 004°30'0 0.0
2018-Feb-22 11:30N 48°19' W 004°30'0 0.0
2018-Feb-22 10:54N 48°19' W 004°30'0 0.0
2018-Feb-22 10:24N 48°19' W 004°30'0 0.0
2018-Feb-22 10:00N 48°19' W 004°30'0 0.0
2018-Feb-22 09:30N 48°19' W 004°30'0 0.0
2018-Feb-22 09:00N 48°19' W 004°30'0 0.0
2018-Feb-22 08:30N 48°19' W 004°30'0 0.3
2018-Feb-22 08:00N 48°18' W 004°30'0 0.3
2018-Feb-22 07:30N 48°18' W 004°30'4 9.0
2018-Feb-22 07:00N 48°23' W 004°30'0 0.0
2018-Feb-21 13:13N 48°23' W 004°30'0 2.1
2018-Feb-21 13:00N 48°22' W 004°30'4 8.0
2018-Feb-21 12:30N 48°18' W 004°30'0 0.2
2018-Feb-21 11:58N 48°19' W 004°30'0 0.1
2018-Feb-21 11:30N 48°19' W 004°30'0 0.0
2018-Feb-21 11:00N 48°19' W 004°30'0 0.0
2018-Feb-21 10:30N 48°19' W 004°30'0 0.0
2018-Feb-21 09:58N 48°19' W 004°30'0 0.0
2018-Feb-21 09:28N 48°19' W 004°30'0 0.0
2018-Feb-21 08:58N 48°19' W 004°30'0 0.4
2018-Feb-21 08:30N 48°18' W 004°30'0 0.5
2018-Feb-21 08:00N 48°19' W 004°30'4 7.9
2018-Feb-21 07:29N 48°23' W 004°30'0 0.0
2018-Feb-21 07:00N 48°23' W 004°30'0 0.0
2018-Feb-20 13:20N 48°23' W 004°30'0 0.0
2018-Feb-20 12:59N 48°23' W 004°30'0 0.0
2018-Feb-20 12:29N 48°23' W 004°30'0 0.0
2018-Feb-20 11:59N 48°23' W 004°30'0 0.0
2018-Feb-20 11:29N 48°23' W 004°30'1 1.9
2018-Feb-20 11:00N 48°22' W 004°29'1 1.3
2018-Feb-20 10:28N 48°23' W 004°29'0 0.0
2018-Feb-20 09:58N 48°23' W 004°29'1 3.1
2018-Feb-20 09:30N 48°22' W 004°31'1 2.6
2018-Feb-20 09:00N 48°23' W 004°30'0 0.0
2018-Feb-20 08:30N 48°23' W 004°30'0 0.0
2018-Feb-20 08:00N 48°23' W 004°30'0 0.0
2018-Feb-19 13:45N 48°23' W 004°30'0 0.0
2018-Feb-19 13:30N 48°23' W 004°30'1 1.8
2018-Feb-19 13:00N 48°22' W 004°31'0 0.3
2018-Feb-19 12:29N 48°22' W 004°31'0 0.0
2018-Feb-19 11:59N 48°22' W 004°31'0 0.0
2018-Feb-19 11:29N 48°22' W 004°31'0 0.0
2018-Feb-19 10:59N 48°22' W 004°31'0 0.0
2018-Feb-19 10:29N 48°22' W 004°31'0 0.0
2018-Feb-19 09:59N 48°22' W 004°31'0 0.0
2018-Feb-19 09:29N 48°22' W 004°31'0 0.0
2018-Feb-19 08:59N 48°22' W 004°31'0 0.0
2018-Feb-19 08:30N 48°22' W 004°31'1 1.8
2018-Feb-19 08:00N 48°23' W 004°30'0 0.0
2018-Feb-19 07:30N 48°23' W 004°30'0 0.0
2018-Feb-19 06:59N 48°23' W 004°30'  
2018-Feb-15 12:08N 48°23' W 004°30'0 0.0
2018-Feb-15 11:59N 48°23' W 004°30'0 0.0
2018-Feb-15 11:28N 48°23' W 004°30'0 0.0
2018-Feb-15 10:58N 48°23' W 004°30'0 0.0
2018-Feb-15 10:28N 48°23' W 004°30'0 0.0
2018-Feb-15 09:58N 48°23' W 004°30'0 0.0
2018-Feb-15 09:28N 48°23' W 004°30'0 0.0
2018-Feb-15 08:58N 48°23' W 004°30'0 0.0
2018-Feb-15 08:28N 48°23' W 004°30'0 0.0
2018-Feb-15 08:00N 48°23' W 004°30'0 0.0
2018-Feb-15 07:28N 48°23' W 004°30'0 0.0
2018-Feb-14 13:37N 48°23' W 004°30'0 0.2
2018-Feb-14 13:30N 48°23' W 004°30'1 1.9
2018-Feb-14 13:00N 48°22' W 004°31'0 0.0
2018-Feb-14 12:30N 48°22' W 004°31'0 0.0
2018-Feb-14 12:00N 48°22' W 004°31'0 0.0
2018-Feb-14 11:30N 48°22' W 004°31'0 0.0
2018-Feb-14 11:00N 48°22' W 004°31'0 0.0
2018-Feb-14 10:27N 48°22' W 004°31'0 0.0
2018-Feb-14 10:00N 48°22' W 004°31'0 0.0
2018-Feb-14 09:31N 48°22' W 004°31'0 0.0
2018-Feb-14 08:59N 48°22' W 004°31'0 0.0
2018-Feb-14 08:29N 48°22' W 004°31'0 0.0
2018-Feb-14 07:59N 48°22' W 004°31'0 0.0
2018-Feb-14 07:29N 48°22' W 004°31'1 0.0
2018-Feb-13 13:02N 48°23' W 004°30'0 0.0
2018-Feb-13 12:59N 48°23' W 004°30'0 0.0
2018-Feb-13 12:29N 48°23' W 004°30'0 0.0
2018-Feb-13 11:59N 48°23' W 004°30'2 5.0
2018-Feb-13 11:30N 48°21' W 004°29'2 3.6
2018-Feb-13 10:55N 48°18' W 004°30'0 0.2
2018-Feb-13 10:29N 48°18' W 004°30'0 0.0
2018-Feb-13 09:59N 48°18' W 004°30'0 0.0
2018-Feb-13 09:29N 48°18' W 004°30'  

Dump ship's entire track history